sensor_id;sensor_type;location;lat;lon;timestamp;P1;durP1;ratioP1;P2;durP2;ratioP2
57319;SDS011;43158;51.026;18.190;2023-03-13T00:01:28;9.10;;;5.30;;
57319;SDS011;43158;51.026;18.190;2023-03-13T00:04:00;8.90;;;5.60;;
57319;SDS011;43158;51.026;18.190;2023-03-13T00:06:29;8.90;;;7.20;;
57319;SDS011;43158;51.026;18.190;2023-03-13T00:08:57;8.40;;;5.90;;
57319;SDS011;43158;51.026;18.190;2023-03-13T00:11:27;7.70;;;6.30;;
57319;SDS011;43158;51.026;18.190;2023-03-13T00:13:54;8.80;;;6.00;;
57319;SDS011;43158;51.026;18.190;2023-03-13T00:16:22;9.20;;;6.00;;
57319;SDS011;43158;51.026;18.190;2023-03-13T00:18:49;11.20;;;8.20;;
57319;SDS011;43158;51.026;18.190;2023-03-13T00:21:17;9.60;;;6.30;;
57319;SDS011;43158;51.026;18.190;2023-03-13T00:23:45;11.10;;;7.40;;
57319;SDS011;43158;51.026;18.190;2023-03-13T00:26:12;12.00;;;6.70;;
57319;SDS011;43158;51.026;18.190;2023-03-13T00:28:41;7.80;;;6.50;;
57319;SDS011;43158;51.026;18.190;2023-03-13T00:31:18;9.10;;;6.60;;
57319;SDS011;43158;51.026;18.190;2023-03-13T00:33:47;9.60;;;6.70;;
57319;SDS011;43158;51.026;18.190;2023-03-13T00:36:17;11.80;;;7.30;;
57319;SDS011;43158;51.026;18.190;2023-03-13T00:38:48;8.10;;;6.60;;
57319;SDS011;43158;51.026;18.190;2023-03-13T00:41:19;10.90;;;6.80;;
57319;SDS011;43158;51.026;18.190;2023-03-13T00:43:46;9.10;;;7.30;;
57319;SDS011;43158;51.026;18.190;2023-03-13T00:46:15;11.70;;;6.80;;
57319;SDS011;43158;51.026;18.190;2023-03-13T00:48:43;10.40;;;7.10;;
57319;SDS011;43158;51.026;18.190;2023-03-13T00:51:10;10.40;;;7.30;;
57319;SDS011;43158;51.026;18.190;2023-03-13T00:53:37;10.40;;;7.30;;
57319;SDS011;43158;51.026;18.190;2023-03-13T00:56:08;8.90;;;6.30;;
57319;SDS011;43158;51.026;18.190;2023-03-13T00:58:39;7.50;;;5.80;;
57319;SDS011;43158;51.026;18.190;2023-03-13T01:01:08;9.60;;;7.20;;
57319;SDS011;43158;51.026;18.190;2023-03-13T01:03:36;9.30;;;7.50;;
57319;SDS011;43158;51.026;18.190;2023-03-13T01:06:03;9.20;;;6.80;;
57319;SDS011;43158;51.026;18.190;2023-03-13T01:08:31;8.20;;;6.60;;
57319;SDS011;43158;51.026;18.190;2023-03-13T01:11:00;9.30;;;7.10;;
57319;SDS011;43158;51.026;18.190;2023-03-13T01:13:28;10.20;;;7.10;;
57319;SDS011;43158;51.026;18.190;2023-03-13T01:16:03;10.90;;;7.40;;
57319;SDS011;43158;51.026;18.190;2023-03-13T01:18:34;9.10;;;7.00;;
57319;SDS011;43158;51.026;18.190;2023-03-13T01:21:02;9.00;;;7.00;;
57319;SDS011;43158;51.026;18.190;2023-03-13T01:23:29;8.80;;;7.30;;
57319;SDS011;43158;51.026;18.190;2023-03-13T01:25:55;11.20;;;7.00;;
57319;SDS011;43158;51.026;18.190;2023-03-13T01:28:23;10.10;;;7.40;;
57319;SDS011;43158;51.026;18.190;2023-03-13T01:30:51;12.20;;;6.40;;
57319;SDS011;43158;51.026;18.190;2023-03-13T01:33:17;8.50;;;6.80;;
57319;SDS011;43158;51.026;18.190;2023-03-13T01:35:44;9.20;;;6.90;;
57319;SDS011;43158;51.026;18.190;2023-03-13T01:38:11;7.10;;;6.40;;
57319;SDS011;43158;51.026;18.190;2023-03-13T01:40:41;8.40;;;5.80;;
57319;SDS011;43158;51.026;18.190;2023-03-13T01:43:20;5.90;;;5.10;;
57319;SDS011;43158;51.026;18.190;2023-03-13T01:48:32;6.40;;;5.20;;
57319;SDS011;43158;51.026;18.190;2023-03-13T01:51:06;6.60;;;5.80;;
57319;SDS011;43158;51.026;18.190;2023-03-13T01:53:35;5.10;;;4.60;;
57319;SDS011;43158;51.026;18.190;2023-03-13T01:56:05;6.70;;;5.40;;
57319;SDS011;43158;51.026;18.190;2023-03-13T01:58:35;7.80;;;5.60;;
57319;SDS011;43158;51.026;18.190;2023-03-13T02:01:02;8.60;;;6.30;;
57319;SDS011;43158;51.026;18.190;2023-03-13T02:03:43;6.60;;;5.90;;
57319;SDS011;43158;51.026;18.190;2023-03-13T02:06:09;8.50;;;5.80;;
57319;SDS011;43158;51.026;18.190;2023-03-13T02:09:10;7.00;;;5.90;;
57319;SDS011;43158;51.026;18.190;2023-03-13T02:14:18;8.60;;;5.70;;
57319;SDS011;43158;51.026;18.190;2023-03-13T02:16:46;6.70;;;5.30;;
57319;SDS011;43158;51.026;18.190;2023-03-13T02:19:24;6.50;;;5.60;;
57319;SDS011;43158;51.026;18.190;2023-03-13T02:24:43;6.70;;;6.00;;
57319;SDS011;43158;51.026;18.190;2023-03-13T02:27:15;6.70;;;6.00;;
57319;SDS011;43158;51.026;18.190;2023-03-13T02:29:42;8.20;;;5.80;;
57319;SDS011;43158;51.026;18.190;2023-03-13T02:32:09;6.60;;;5.60;;
57319;SDS011;43158;51.026;18.190;2023-03-13T02:34:37;5.90;;;5.30;;
57319;SDS011;43158;51.026;18.190;2023-03-13T02:37:05;6.70;;;5.90;;
57319;SDS011;43158;51.026;18.190;2023-03-13T02:39:35;5.90;;;5.20;;
57319;SDS011;43158;51.026;18.190;2023-03-13T02:42:04;8.50;;;5.70;;
57319;SDS011;43158;51.026;18.190;2023-03-13T02:44:34;5.70;;;5.20;;
57319;SDS011;43158;51.026;18.190;2023-03-13T02:47:03;7.30;;;6.20;;
57319;SDS011;43158;51.026;18.190;2023-03-13T02:49:30;4.70;;;4.30;;
57319;SDS011;43158;51.026;18.190;2023-03-13T02:52:03;6.10;;;5.40;;
57319;SDS011;43158;51.026;18.190;2023-03-13T02:54:37;6.10;;;5.50;;
57319;SDS011;43158;51.026;18.190;2023-03-13T02:57:04;6.30;;;5.70;;
57319;SDS011;43158;51.026;18.190;2023-03-13T02:59:31;6.50;;;5.90;;
57319;SDS011;43158;51.026;18.190;2023-03-13T03:01:58;6.50;;;5.90;;
57319;SDS011;43158;51.026;18.190;2023-03-13T03:04:25;6.20;;;5.70;;
57319;SDS011;43158;51.026;18.190;2023-03-13T03:06:52;6.70;;;6.10;;
57319;SDS011;43158;51.026;18.190;2023-03-13T03:09:19;7.40;;;5.90;;
57319;SDS011;43158;51.026;18.190;2023-03-13T03:11:45;8.00;;;7.10;;
57319;SDS011;43158;51.026;18.190;2023-03-13T03:14:12;6.90;;;6.20;;
57319;SDS011;43158;51.026;18.190;2023-03-13T03:16:39;6.90;;;5.80;;
57319;SDS011;43158;51.026;18.190;2023-03-13T03:19:06;7.60;;;7.00;;
57319;SDS011;43158;51.026;18.190;2023-03-13T03:21:33;6.70;;;6.10;;
57319;SDS011;43158;51.026;18.190;2023-03-13T03:24:00;6.80;;;6.20;;
57319;SDS011;43158;51.026;18.190;2023-03-13T03:26:26;6.50;;;5.70;;
57319;SDS011;43158;51.026;18.190;2023-03-13T03:28:52;8.10;;;7.00;;
57319;SDS011;43158;51.026;18.190;2023-03-13T03:31:18;7.10;;;6.20;;
57319;SDS011;43158;51.026;18.190;2023-03-13T03:33:44;8.30;;;7.40;;
57319;SDS011;43158;51.026;18.190;2023-03-13T03:36:11;7.20;;;6.50;;
57319;SDS011;43158;51.026;18.190;2023-03-13T03:38:39;9.80;;;7.80;;
57319;SDS011;43158;51.026;18.190;2023-03-13T03:41:06;8.10;;;7.30;;
57319;SDS011;43158;51.026;18.190;2023-03-13T03:43:32;8.50;;;7.70;;
57319;SDS011;43158;51.026;18.190;2023-03-13T03:45:59;7.40;;;6.70;;
57319;SDS011;43158;51.026;18.190;2023-03-13T03:48:25;7.30;;;6.70;;
57319;SDS011;43158;51.026;18.190;2023-03-13T03:50:51;7.80;;;6.50;;
57319;SDS011;43158;51.026;18.190;2023-03-13T03:53:17;8.60;;;7.70;;
57319;SDS011;43158;51.026;18.190;2023-03-13T03:55:43;8.60;;;7.60;;
57319;SDS011;43158;51.026;18.190;2023-03-13T03:58:09;8.60;;;7.90;;
57319;SDS011;43158;51.026;18.190;2023-03-13T04:00:36;8.70;;;7.40;;
57319;SDS011;43158;51.026;18.190;2023-03-13T04:03:02;8.60;;;7.80;;
57319;SDS011;43158;51.026;18.190;2023-03-13T04:05:28;9.00;;;7.90;;
57319;SDS011;43158;51.026;18.190;2023-03-13T04:07:54;6.80;;;6.10;;
57319;SDS011;43158;51.026;18.190;2023-03-13T04:10:20;8.30;;;7.40;;
57319;SDS011;43158;51.026;18.190;2023-03-13T04:12:46;8.50;;;7.70;;
57319;SDS011;43158;51.026;18.190;2023-03-13T04:15:12;9.90;;;7.80;;
57319;SDS011;43158;51.026;18.190;2023-03-13T04:17:38;8.00;;;7.10;;
57319;SDS011;43158;51.026;18.190;2023-03-13T04:20:05;9.80;;;8.80;;
57319;SDS011;43158;51.026;18.190;2023-03-13T04:22:32;9.20;;;7.90;;
57319;SDS011;43158;51.026;18.190;2023-03-13T04:24:59;9.00;;;8.20;;
57319;SDS011;43158;51.026;18.190;2023-03-13T04:27:25;10.30;;;9.20;;
57319;SDS011;43158;51.026;18.190;2023-03-13T04:29:54;8.10;;;7.30;;
57319;SDS011;43158;51.026;18.190;2023-03-13T04:32:21;11.00;;;8.90;;
57319;SDS011;43158;51.026;18.190;2023-03-13T04:34:48;10.30;;;7.80;;
57319;SDS011;43158;51.026;18.190;2023-03-13T04:37:14;8.80;;;7.90;;
57319;SDS011;43158;51.026;18.190;2023-03-13T04:39:41;8.70;;;7.80;;
57319;SDS011;43158;51.026;18.190;2023-03-13T04:42:09;9.10;;;8.20;;
57319;SDS011;43158;51.026;18.190;2023-03-13T04:44:36;8.80;;;7.90;;
57319;SDS011;43158;51.026;18.190;2023-03-13T04:47:02;8.90;;;7.50;;
57319;SDS011;43158;51.026;18.190;2023-03-13T04:49:29;7.50;;;6.90;;
57319;SDS011;43158;51.026;18.190;2023-03-13T04:51:56;7.50;;;6.90;;
57319;SDS011;43158;51.026;18.190;2023-03-13T04:54:22;7.80;;;6.80;;
57319;SDS011;43158;51.026;18.190;2023-03-13T04:56:49;8.80;;;7.20;;
57319;SDS011;43158;51.026;18.190;2023-03-13T04:59:15;8.30;;;7.50;;
57319;SDS011;43158;51.026;18.190;2023-03-13T05:01:42;7.40;;;6.50;;
57319;SDS011;43158;51.026;18.190;2023-03-13T05:04:09;7.30;;;6.40;;
57319;SDS011;43158;51.026;18.190;2023-03-13T05:06:36;6.50;;;5.50;;
57319;SDS011;43158;51.026;18.190;2023-03-13T05:09:03;8.00;;;7.20;;
57319;SDS011;43158;51.026;18.190;2023-03-13T05:11:30;6.60;;;5.70;;
57319;SDS011;43158;51.026;18.190;2023-03-13T05:13:57;11.70;;;7.10;;
57319;SDS011;43158;51.026;18.190;2023-03-13T05:16:23;7.60;;;6.60;;
57319;SDS011;43158;51.026;18.190;2023-03-13T05:18:50;7.80;;;6.90;;
57319;SDS011;43158;51.026;18.190;2023-03-13T05:21:16;7.10;;;6.40;;
57319;SDS011;43158;51.026;18.190;2023-03-13T05:23:42;7.40;;;5.60;;
57319;SDS011;43158;51.026;18.190;2023-03-13T05:26:09;7.10;;;6.40;;
57319;SDS011;43158;51.026;18.190;2023-03-13T05:28:36;7.40;;;6.10;;
57319;SDS011;43158;51.026;18.190;2023-03-13T05:31:02;11.00;;;6.60;;
57319;SDS011;43158;51.026;18.190;2023-03-13T05:33:29;10.30;;;7.40;;
57319;SDS011;43158;51.026;18.190;2023-03-13T05:35:56;13.00;;;8.40;;
57319;SDS011;43158;51.026;18.190;2023-03-13T05:38:22;9.50;;;7.90;;
57319;SDS011;43158;51.026;18.190;2023-03-13T05:40:49;10.80;;;8.40;;
57319;SDS011;43158;51.026;18.190;2023-03-13T05:43:16;12.30;;;9.50;;
57319;SDS011;43158;51.026;18.190;2023-03-13T05:45:43;8.90;;;7.40;;
57319;SDS011;43158;51.026;18.190;2023-03-13T05:48:09;9.10;;;6.70;;
57319;SDS011;43158;51.026;18.190;2023-03-13T05:50:37;10.40;;;7.10;;
57319;SDS011;43158;51.026;18.190;2023-03-13T05:53:04;8.60;;;6.40;;
57319;SDS011;43158;51.026;18.190;2023-03-13T05:55:30;6.80;;;5.80;;
57319;SDS011;43158;51.026;18.190;2023-03-13T05:57:57;9.90;;;7.10;;
57319;SDS011;43158;51.026;18.190;2023-03-13T06:00:24;8.00;;;6.80;;
57319;SDS011;43158;51.026;18.190;2023-03-13T06:02:51;8.20;;;7.20;;
57319;SDS011;43158;51.026;18.190;2023-03-13T06:05:18;7.40;;;6.60;;
57319;SDS011;43158;51.026;18.190;2023-03-13T06:07:45;7.80;;;7.00;;
57319;SDS011;43158;51.026;18.190;2023-03-13T06:10:11;7.70;;;7.00;;
57319;SDS011;43158;51.026;18.190;2023-03-13T06:12:38;9.40;;;6.50;;
57319;SDS011;43158;51.026;18.190;2023-03-13T06:15:04;7.90;;;7.00;;
57319;SDS011;43158;51.026;18.190;2023-03-13T06:17:31;8.20;;;6.70;;
57319;SDS011;43158;51.026;18.190;2023-03-13T06:19:58;10.10;;;6.70;;
57319;SDS011;43158;51.026;18.190;2023-03-13T06:22:25;8.40;;;7.60;;
57319;SDS011;43158;51.026;18.190;2023-03-13T06:24:52;8.60;;;7.00;;
57319;SDS011;43158;51.026;18.190;2023-03-13T06:27:19;8.80;;;7.20;;
57319;SDS011;43158;51.026;18.190;2023-03-13T06:29:46;9.00;;;7.60;;
57319;SDS011;43158;51.026;18.190;2023-03-13T06:32:12;9.30;;;6.70;;
57319;SDS011;43158;51.026;18.190;2023-03-13T06:34:39;7.40;;;6.80;;
57319;SDS011;43158;51.026;18.190;2023-03-13T06:37:05;9.50;;;7.50;;
57319;SDS011;43158;51.026;18.190;2023-03-13T06:39:32;8.30;;;7.50;;
57319;SDS011;43158;51.026;18.190;2023-03-13T06:41:59;10.10;;;7.60;;
57319;SDS011;43158;51.026;18.190;2023-03-13T06:44:25;8.70;;;7.70;;
57319;SDS011;43158;51.026;18.190;2023-03-13T06:46:52;8.00;;;6.90;;
57319;SDS011;43158;51.026;18.190;2023-03-13T06:49:18;11.30;;;8.30;;
57319;SDS011;43158;51.026;18.190;2023-03-13T06:51:45;10.80;;;7.70;;
57319;SDS011;43158;51.026;18.190;2023-03-13T06:54:12;9.80;;;7.50;;
57319;SDS011;43158;51.026;18.190;2023-03-13T06:56:38;14.50;;;8.20;;
57319;SDS011;43158;51.026;18.190;2023-03-13T06:59:06;8.40;;;7.50;;
57319;SDS011;43158;51.026;18.190;2023-03-13T07:01:33;16.60;;;8.00;;
57319;SDS011;43158;51.026;18.190;2023-03-13T07:04:00;11.80;;;8.80;;
57319;SDS011;43158;51.026;18.190;2023-03-13T07:06:26;12.80;;;8.60;;
57319;SDS011;43158;51.026;18.190;2023-03-13T07:08:53;13.10;;;7.50;;
57319;SDS011;43158;51.026;18.190;2023-03-13T07:11:20;13.70;;;8.60;;
57319;SDS011;43158;51.026;18.190;2023-03-13T07:13:46;9.80;;;8.00;;
57319;SDS011;43158;51.026;18.190;2023-03-13T07:16:13;10.50;;;7.70;;
57319;SDS011;43158;51.026;18.190;2023-03-13T07:18:39;12.10;;;8.40;;
57319;SDS011;43158;51.026;18.190;2023-03-13T07:21:09;10.80;;;8.70;;
57319;SDS011;43158;51.026;18.190;2023-03-13T07:23:36;12.60;;;9.60;;
57319;SDS011;43158;51.026;18.190;2023-03-13T07:26:05;9.10;;;7.00;;
57319;SDS011;43158;51.026;18.190;2023-03-13T07:28:33;15.30;;;7.40;;
57319;SDS011;43158;51.026;18.190;2023-03-13T07:31:04;7.80;;;6.30;;
57319;SDS011;43158;51.026;18.190;2023-03-13T07:33:35;12.20;;;7.80;;
57319;SDS011;43158;51.026;18.190;2023-03-13T07:36:02;9.10;;;8.00;;
57319;SDS011;43158;51.026;18.190;2023-03-13T07:38:29;8.00;;;6.40;;
57319;SDS011;43158;51.026;18.190;2023-03-13T07:40:56;10.80;;;6.50;;
57319;SDS011;43158;51.026;18.190;2023-03-13T07:43:23;14.50;;;7.20;;
57319;SDS011;43158;51.026;18.190;2023-03-13T07:45:57;10.00;;;6.80;;
57319;SDS011;43158;51.026;18.190;2023-03-13T07:48:27;14.00;;;7.10;;
57319;SDS011;43158;51.026;18.190;2023-03-13T07:50:57;8.60;;;6.00;;
57319;SDS011;43158;51.026;18.190;2023-03-13T07:53:24;9.60;;;6.30;;
57319;SDS011;43158;51.026;18.190;2023-03-13T07:55:58;9.40;;;6.60;;
57319;SDS011;43158;51.026;18.190;2023-03-13T07:58:27;7.00;;;5.20;;
57319;SDS011;43158;51.026;18.190;2023-03-13T08:00:55;9.50;;;6.20;;
57319;SDS011;43158;51.026;18.190;2023-03-13T08:03:22;7.90;;;5.10;;
57319;SDS011;43158;51.026;18.190;2023-03-13T08:05:58;9.60;;;5.60;;
57319;SDS011;43158;51.026;18.190;2023-03-13T08:08:26;11.20;;;5.70;;
57319;SDS011;43158;51.026;18.190;2023-03-13T08:10:58;9.10;;;5.20;;
57319;SDS011;43158;51.026;18.190;2023-03-13T08:13:26;12.10;;;6.10;;
57319;SDS011;43158;51.026;18.190;2023-03-13T08:16:00;5.50;;;4.80;;
57319;SDS011;43158;51.026;18.190;2023-03-13T08:18:27;11.10;;;6.30;;
57319;SDS011;43158;51.026;18.190;2023-03-13T08:20:54;8.60;;;4.90;;
57319;SDS011;43158;51.026;18.190;2023-03-13T08:23:20;10.10;;;6.20;;
57319;SDS011;43158;51.026;18.190;2023-03-13T08:25:46;9.00;;;5.30;;
57319;SDS011;43158;51.026;18.190;2023-03-13T08:28:13;8.70;;;5.40;;
57319;SDS011;43158;51.026;18.190;2023-03-13T08:30:40;7.30;;;5.90;;
57319;SDS011;43158;51.026;18.190;2023-03-13T08:33:06;8.10;;;5.90;;
57319;SDS011;43158;51.026;18.190;2023-03-13T08:35:33;9.60;;;6.20;;
57319;SDS011;43158;51.026;18.190;2023-03-13T08:37:59;7.90;;;5.20;;
57319;SDS011;43158;51.026;18.190;2023-03-13T08:40:27;8.40;;;5.00;;
57319;SDS011;43158;51.026;18.190;2023-03-13T08:42:53;9.20;;;5.50;;
57319;SDS011;43158;51.026;18.190;2023-03-13T08:45:20;11.50;;;5.60;;
57319;SDS011;43158;51.026;18.190;2023-03-13T08:47:50;5.70;;;4.40;;
57319;SDS011;43158;51.026;18.190;2023-03-13T08:50:18;7.90;;;4.30;;
57319;SDS011;43158;51.026;18.190;2023-03-13T08:52:44;9.50;;;5.10;;
57319;SDS011;43158;51.026;18.190;2023-03-13T08:55:11;9.60;;;5.50;;
57319;SDS011;43158;51.026;18.190;2023-03-13T08:57:37;11.60;;;5.80;;
57319;SDS011;43158;51.026;18.190;2023-03-13T09:00:03;12.50;;;4.80;;
57319;SDS011;43158;51.026;18.190;2023-03-13T09:02:33;9.20;;;4.60;;
57319;SDS011;43158;51.026;18.190;2023-03-13T09:05:00;9.50;;;6.40;;
57319;SDS011;43158;51.026;18.190;2023-03-13T09:07:27;14.00;;;5.50;;
57319;SDS011;43158;51.026;18.190;2023-03-13T09:09:54;8.10;;;4.50;;
57319;SDS011;43158;51.026;18.190;2023-03-13T09:12:20;7.00;;;4.20;;
57319;SDS011;43158;51.026;18.190;2023-03-13T09:14:47;9.00;;;4.30;;
57319;SDS011;43158;51.026;18.190;2023-03-13T09:17:13;10.30;;;5.80;;
57319;SDS011;43158;51.026;18.190;2023-03-13T09:19:40;7.70;;;4.40;;
57319;SDS011;43158;51.026;18.190;2023-03-13T09:22:07;7.20;;;4.50;;
57319;SDS011;43158;51.026;18.190;2023-03-13T09:24:34;9.50;;;3.80;;
57319;SDS011;43158;51.026;18.190;2023-03-13T09:27:00;3.60;;;3.20;;
57319;SDS011;43158;51.026;18.190;2023-03-13T09:29:26;7.00;;;4.70;;
57319;SDS011;43158;51.026;18.190;2023-03-13T09:31:53;8.30;;;4.50;;
57319;SDS011;43158;51.026;18.190;2023-03-13T09:34:19;6.50;;;4.10;;
57319;SDS011;43158;51.026;18.190;2023-03-13T09:36:47;6.90;;;4.70;;
57319;SDS011;43158;51.026;18.190;2023-03-13T09:39:14;9.50;;;4.00;;
57319;SDS011;43158;51.026;18.190;2023-03-13T09:41:52;7.60;;;5.00;;
57319;SDS011;43158;51.026;18.190;2023-03-13T09:44:30;12.20;;;4.10;;
57319;SDS011;43158;51.026;18.190;2023-03-13T09:47:05;8.90;;;4.50;;
57319;SDS011;43158;51.026;18.190;2023-03-13T09:49:54;6.90;;;3.80;;
57319;SDS011;43158;51.026;18.190;2023-03-13T09:52:32;10.80;;;4.00;;
57319;SDS011;43158;51.026;18.190;2023-03-13T09:57:32;6.20;;;4.40;;
57319;SDS011;43158;51.026;18.190;2023-03-13T10:02:43;6.50;;;4.70;;
57319;SDS011;43158;51.026;18.190;2023-03-13T10:05:15;8.00;;;6.00;;
57319;SDS011;43158;51.026;18.190;2023-03-13T10:07:45;9.90;;;4.80;;
57319;SDS011;43158;51.026;18.190;2023-03-13T10:10:18;6.30;;;4.10;;
57319;SDS011;43158;51.026;18.190;2023-03-13T10:12:47;10.10;;;4.30;;
57319;SDS011;43158;51.026;18.190;2023-03-13T10:15:27;6.60;;;4.20;;
57319;SDS011;43158;51.026;18.190;2023-03-13T10:18:19;10.50;;;3.00;;
57319;SDS011;43158;51.026;18.190;2023-03-13T10:20:49;6.00;;;4.10;;
57319;SDS011;43158;51.026;18.190;2023-03-13T10:23:21;5.60;;;4.30;;
57319;SDS011;43158;51.026;18.190;2023-03-13T10:25:52;6.00;;;3.30;;
57319;SDS011;43158;51.026;18.190;2023-03-13T10:28:19;11.00;;;5.30;;
57319;SDS011;43158;51.026;18.190;2023-03-13T10:33:42;7.00;;;4.40;;
57319;SDS011;43158;51.026;18.190;2023-03-13T10:36:12;9.10;;;5.10;;
57319;SDS011;43158;51.026;18.190;2023-03-13T10:38:46;8.40;;;4.10;;
57319;SDS011;43158;51.026;18.190;2023-03-13T10:41:18;6.60;;;3.70;;
57319;SDS011;43158;51.026;18.190;2023-03-13T10:43:50;11.30;;;4.70;;
57319;SDS011;43158;51.026;18.190;2023-03-13T10:46:28;8.40;;;4.50;;
57319;SDS011;43158;51.026;18.190;2023-03-13T10:48:56;8.60;;;4.30;;
57319;SDS011;43158;51.026;18.190;2023-03-13T10:51:23;5.20;;;4.20;;
57319;SDS011;43158;51.026;18.190;2023-03-13T10:53:56;12.00;;;4.60;;
57319;SDS011;43158;51.026;18.190;2023-03-13T10:56:28;8.40;;;3.30;;
57319;SDS011;43158;51.026;18.190;2023-03-13T10:58:55;8.10;;;3.50;;
57319;SDS011;43158;51.026;18.190;2023-03-13T11:01:39;7.60;;;3.30;;
57319;SDS011;43158;51.026;18.190;2023-03-13T11:04:24;7.20;;;3.30;;
57319;SDS011;43158;51.026;18.190;2023-03-13T11:07:00;8.30;;;3.90;;
57319;SDS011;43158;51.026;18.190;2023-03-13T11:09:28;6.40;;;3.40;;
57319;SDS011;43158;51.026;18.190;2023-03-13T11:12:00;12.60;;;4.20;;
57319;SDS011;43158;51.026;18.190;2023-03-13T11:14:29;7.60;;;2.90;;
57319;SDS011;43158;51.026;18.190;2023-03-13T11:17:03;11.10;;;3.80;;
57319;SDS011;43158;51.026;18.190;2023-03-13T11:19:38;7.70;;;3.50;;
57319;SDS011;43158;51.026;18.190;2023-03-13T11:22:29;6.20;;;3.00;;
57319;SDS011;43158;51.026;18.190;2023-03-13T11:25:18;11.40;;;4.80;;
57319;SDS011;43158;51.026;18.190;2023-03-13T11:27:50;9.00;;;4.00;;
57319;SDS011;43158;51.026;18.190;2023-03-13T11:30:52;8.80;;;3.30;;
57319;SDS011;43158;51.026;18.190;2023-03-13T11:36:45;10.20;;;4.60;;
57319;SDS011;43158;51.026;18.190;2023-03-13T11:45:01;11.60;;;4.20;;
57319;SDS011;43158;51.026;18.190;2023-03-13T11:50:38;9.00;;;4.00;;
57319;SDS011;43158;51.026;18.190;2023-03-13T12:06:45;10.40;;;4.50;;
57319;SDS011;43158;51.026;18.190;2023-03-13T12:09:20;9.30;;;3.70;;
57319;SDS011;43158;51.026;18.190;2023-03-13T12:12:04;7.00;;;4.00;;
57319;SDS011;43158;51.026;18.190;2023-03-13T12:14:58;9.00;;;3.60;;
57319;SDS011;43158;51.026;18.190;2023-03-13T12:17:38;11.80;;;4.30;;
57319;SDS011;43158;51.026;18.190;2023-03-13T12:20:24;13.10;;;3.90;;
57319;SDS011;43158;51.026;18.190;2023-03-13T12:23:15;9.40;;;4.30;;
57319;SDS011;43158;51.026;18.190;2023-03-13T12:25:51;11.10;;;3.70;;
57319;SDS011;43158;51.026;18.190;2023-03-13T12:31:03;8.60;;;4.70;;
57319;SDS011;43158;51.026;18.190;2023-03-13T12:33:47;11.30;;;4.20;;
57319;SDS011;43158;51.026;18.190;2023-03-13T12:39:19;8.30;;;4.70;;
57319;SDS011;43158;51.026;18.190;2023-03-13T12:41:43;15.30;;;4.40;;
57319;SDS011;43158;51.026;18.190;2023-03-13T12:44:17;9.50;;;4.10;;
57319;SDS011;43158;51.026;18.190;2023-03-13T12:52:27;9.60;;;4.00;;
57319;SDS011;43158;51.026;18.190;2023-03-13T13:00:24;6.70;;;3.60;;
57319;SDS011;43158;51.026;18.190;2023-03-13T13:05:56;9.60;;;3.20;;
57319;SDS011;43158;51.026;18.190;2023-03-13T13:17:10;11.60;;;4.40;;
57319;SDS011;43158;51.026;18.190;2023-03-13T13:25:24;5.60;;;3.00;;
57319;SDS011;43158;51.026;18.190;2023-03-13T13:35:23;7.20;;;3.10;;
57319;SDS011;43158;51.026;18.190;2023-03-13T13:37:51;6.80;;;2.70;;
57319;SDS011;43158;51.026;18.190;2023-03-13T13:40:19;9.60;;;2.90;;
57319;SDS011;43158;51.026;18.190;2023-03-13T13:42:49;8.40;;;3.10;;
57319;SDS011;43158;51.026;18.190;2023-03-13T13:45:25;9.30;;;2.90;;
57319;SDS011;43158;51.026;18.190;2023-03-13T13:48:20;7.30;;;2.90;;
57319;SDS011;43158;51.026;18.190;2023-03-13T13:53:45;5.70;;;3.00;;
57319;SDS011;43158;51.026;18.190;2023-03-13T14:04:37;8.00;;;2.60;;
57319;SDS011;43158;51.026;18.190;2023-03-13T14:07:31;7.70;;;3.50;;
57319;SDS011;43158;51.026;18.190;2023-03-13T14:10:28;6.80;;;3.10;;
57319;SDS011;43158;51.026;18.190;2023-03-13T14:13:01;5.50;;;2.30;;
57319;SDS011;43158;51.026;18.190;2023-03-13T14:15:36;7.50;;;3.80;;
57319;SDS011;43158;51.026;18.190;2023-03-13T14:18:10;5.70;;;2.90;;
57319;SDS011;43158;51.026;18.190;2023-03-13T14:23:30;8.70;;;3.40;;
57319;SDS011;43158;51.026;18.190;2023-03-13T14:26:08;5.80;;;2.70;;
57319;SDS011;43158;51.026;18.190;2023-03-13T14:28:41;6.60;;;3.60;;
57319;SDS011;43158;51.026;18.190;2023-03-13T14:31:09;8.60;;;3.00;;
57319;SDS011;43158;51.026;18.190;2023-03-13T14:33:56;8.00;;;3.40;;
57319;SDS011;43158;51.026;18.190;2023-03-13T14:36:25;6.20;;;3.50;;
57319;SDS011;43158;51.026;18.190;2023-03-13T14:38:56;5.40;;;3.20;;
57319;SDS011;43158;51.026;18.190;2023-03-13T14:41:31;5.50;;;3.40;;
57319;SDS011;43158;51.026;18.190;2023-03-13T14:44:05;6.10;;;3.50;;
57319;SDS011;43158;51.026;18.190;2023-03-13T14:46:41;6.60;;;3.30;;
57319;SDS011;43158;51.026;18.190;2023-03-13T14:49:19;7.80;;;3.30;;
57319;SDS011;43158;51.026;18.190;2023-03-13T14:54:33;7.80;;;3.40;;
57319;SDS011;43158;51.026;18.190;2023-03-13T14:57:01;7.30;;;3.80;;
57319;SDS011;43158;51.026;18.190;2023-03-13T14:59:29;7.30;;;4.10;;
57319;SDS011;43158;51.026;18.190;2023-03-13T15:01:59;8.60;;;3.70;;
57319;SDS011;43158;51.026;18.190;2023-03-13T15:04:48;7.50;;;3.70;;
57319;SDS011;43158;51.026;18.190;2023-03-13T15:07:15;7.80;;;2.90;;
57319;SDS011;43158;51.026;18.190;2023-03-13T15:09:43;5.10;;;3.10;;
57319;SDS011;43158;51.026;18.190;2023-03-13T15:12:12;6.80;;;3.40;;
57319;SDS011;43158;51.026;18.190;2023-03-13T15:14:44;6.20;;;3.00;;
57319;SDS011;43158;51.026;18.190;2023-03-13T15:17:19;5.80;;;3.10;;
57319;SDS011;43158;51.026;18.190;2023-03-13T15:19:48;7.70;;;3.50;;
57319;SDS011;43158;51.026;18.190;2023-03-13T15:22:17;5.30;;;3.50;;
57319;SDS011;43158;51.026;18.190;2023-03-13T15:24:45;8.00;;;3.60;;
57319;SDS011;43158;51.026;18.190;2023-03-13T15:27:16;7.70;;;4.20;;
57319;SDS011;43158;51.026;18.190;2023-03-13T15:29:44;7.90;;;3.70;;
57319;SDS011;43158;51.026;18.190;2023-03-13T15:32:13;5.90;;;4.10;;
57319;SDS011;43158;51.026;18.190;2023-03-13T15:34:48;5.80;;;4.20;;
57319;SDS011;43158;51.026;18.190;2023-03-13T15:37:17;5.50;;;3.70;;
57319;SDS011;43158;51.026;18.190;2023-03-13T15:39:44;7.00;;;5.20;;
57319;SDS011;43158;51.026;18.190;2023-03-13T15:42:10;8.40;;;4.30;;
57319;SDS011;43158;51.026;18.190;2023-03-13T15:44:37;7.30;;;5.10;;
57319;SDS011;43158;51.026;18.190;2023-03-13T15:47:04;7.30;;;5.20;;
57319;SDS011;43158;51.026;18.190;2023-03-13T15:49:32;6.50;;;5.00;;
57319;SDS011;43158;51.026;18.190;2023-03-13T15:51:59;8.50;;;6.00;;
57319;SDS011;43158;51.026;18.190;2023-03-13T15:54:26;11.20;;;6.00;;
57319;SDS011;43158;51.026;18.190;2023-03-13T15:56:52;8.60;;;6.10;;
57319;SDS011;43158;51.026;18.190;2023-03-13T15:59:19;10.40;;;6.40;;
57319;SDS011;43158;51.026;18.190;2023-03-13T16:01:46;9.40;;;6.60;;
57319;SDS011;43158;51.026;18.190;2023-03-13T16:04:13;9.70;;;5.60;;
57319;SDS011;43158;51.026;18.190;2023-03-13T16:06:39;6.80;;;5.60;;
57319;SDS011;43158;51.026;18.190;2023-03-13T16:09:06;8.50;;;5.10;;
57319;SDS011;43158;51.026;18.190;2023-03-13T16:11:33;7.70;;;5.10;;
57319;SDS011;43158;51.026;18.190;2023-03-13T16:14:00;5.60;;;5.00;;
57319;SDS011;43158;51.026;18.190;2023-03-13T16:16:28;8.60;;;5.40;;
57319;SDS011;43158;51.026;18.190;2023-03-13T16:18:56;7.40;;;5.20;;
57319;SDS011;43158;51.026;18.190;2023-03-13T16:21:25;10.00;;;6.10;;
57319;SDS011;43158;51.026;18.190;2023-03-13T16:26:21;7.20;;;5.40;;
57319;SDS011;43158;51.026;18.190;2023-03-13T16:28:49;9.40;;;6.00;;